Flat Creek, Louisiana
Current Conditions -  °F | °C
As of 1:53 AM on Sunday 23 Nov 2014 (Local Time) from KESF Reporting Station
Light Rain Light Rain  
Wind Chill: 64°   Ceiling: 700
Heat Index: 64°   Visibility: 10mi
Dew Point: 62°   Wind: 13mph
Humidity: 93%   Direction: 140°SE
Pressure: 29.74"   Gusts: 23mph
Location:  31.8583°N, 92.3016°W
Report Text: KESF 230753Z AUTO 14011G20KT 10SM -RA OVC007 18/17 A2974 RMK AO2 SLP071 P0001 T01780167
Loading
Personal Weather Stations






























Interactive Weather Map New forecast layout! Learn more

10-Day Weather Forecast

Advertisements
Track Severe Weather on mobile